createdAt,value
2022-10-13T00:02:04.431Z,11.45
2022-10-13T00:05:12.943Z,11.38
2022-10-13T00:08:22.581Z,11.41
2022-10-13T00:11:33.943Z,11.38
2022-10-13T00:14:42.475Z,11.29
2022-10-13T00:17:51.003Z,11.39
2022-10-13T00:21:05.984Z,11.40
2022-10-13T00:24:11.175Z,11.37
2022-10-13T00:27:26.995Z,11.39
2022-10-13T00:30:28.970Z,11.44
2022-10-13T00:33:43.972Z,11.69
2022-10-13T00:36:45.587Z,11.86
2022-10-13T00:39:59.975Z,11.86
2022-10-13T00:43:01.662Z,11.93
2022-10-13T00:46:16.041Z,11.90
2022-10-13T00:49:17.878Z,11.93
2022-10-13T00:52:33.979Z,11.88
2022-10-13T00:55:46.027Z,11.78
2022-10-13T00:58:55.009Z,11.93
2022-10-13T01:02:17.367Z,11.88
2022-10-13T01:05:21.486Z,11.63
2022-10-13T01:08:35.972Z,11.50
2022-10-13T01:12:07.970Z,11.34
2022-10-13T01:15:39.195Z,11.35
2022-10-13T01:19:06.976Z,11.16
2022-10-13T01:22:35.423Z,11.11
2022-10-13T01:26:10.005Z,11.19
2022-10-13T01:29:43.972Z,11.16
2022-10-13T01:33:05.329Z,11.08
2022-10-13T01:36:32.971Z,10.86
2022-10-13T01:39:57.456Z,11.02
2022-10-13T01:43:13.992Z,10.97
2022-10-13T01:46:33.995Z,11.05
2022-10-13T01:49:36.640Z,10.98
2022-10-13T01:52:52.992Z,10.99
2022-10-13T01:55:57.475Z,11.00
2022-10-13T01:59:18.008Z,10.93
2022-10-13T02:02:54.003Z,11.03
2022-10-13T02:06:13.117Z,11.03
2022-10-13T02:09:40.980Z,10.91
2022-10-13T02:12:49.475Z,10.92
2022-10-13T02:16:07.083Z,10.83
2022-10-13T02:19:11.518Z,10.83
2022-10-13T02:22:29.084Z,10.67
2022-10-13T02:25:40.004Z,10.81
2022-10-13T02:28:55.011Z,10.69
2022-10-13T02:32:03.443Z,10.72
2022-10-13T02:35:18.031Z,10.77
2022-10-13T02:38:19.575Z,10.78
2022-10-13T02:41:34.015Z,10.68
2022-10-13T02:44:35.712Z,10.70
2022-10-13T02:47:50.080Z,10.69
2022-10-13T02:50:58.041Z,10.67
2022-10-13T02:54:06.965Z,10.59
2022-10-13T02:57:15.053Z,10.58
2022-10-13T03:00:40.015Z,10.62
2022-10-13T03:03:49.012Z,10.56
2022-10-13T03:07:04.031Z,10.61
2022-10-13T03:10:13.063Z,10.56
2022-10-13T03:13:21.778Z,10.53
2022-10-13T03:16:30.029Z,10.53
2022-10-13T03:19:38.636Z,10.46
2022-10-13T03:22:49.698Z,10.41
2022-10-13T03:26:04.056Z,10.39
2022-10-13T03:29:05.698Z,10.36
2022-10-13T03:32:20.368Z,10.14
2022-10-13T03:35:29.075Z,10.35
2022-10-13T03:38:39.030Z,10.21
2022-10-13T03:41:47.591Z,10.15
2022-10-13T03:44:56.680Z,10.22
2022-10-13T03:48:11.078Z,10.27
2022-10-13T03:51:16.149Z,10.22
2022-10-13T03:54:31.050Z,10.15
2022-10-13T03:57:39.610Z,10.15
2022-10-13T04:00:49.002Z,10.15
2022-10-13T04:03:58.764Z,10.17
2022-10-13T04:07:07.039Z,10.20
2022-10-13T04:10:32.275Z,10.15
2022-10-13T04:13:34.868Z,10.08
2022-10-13T04:17:09.081Z,10.09
2022-10-13T04:20:25.824Z,10.06
2022-10-13T04:23:33.658Z,10.00
2022-10-13T04:26:43.096Z,10.01
2022-10-13T04:30:00.368Z,10.04
2022-10-13T04:33:02.991Z,10.00
2022-10-13T04:36:20.046Z,9.83
2022-10-13T04:39:35.011Z,9.96
2022-10-13T04:42:36.703Z,9.84
2022-10-13T04:45:51.035Z,9.77
2022-10-13T04:48:59.542Z,9.87
2022-10-13T04:52:08.022Z,9.61
2022-10-13T04:55:16.587Z,9.85
2022-10-13T04:58:25.052Z,9.83
2022-10-13T05:01:40.448Z,9.83
2022-10-13T05:04:49.036Z,9.79
2022-10-13T05:07:57.524Z,9.91
2022-10-13T05:11:08.024Z,9.87
2022-10-13T05:14:26.042Z,9.88
2022-10-13T05:17:55.039Z,9.89
2022-10-13T05:21:15.060Z,9.89
2022-10-13T05:24:24.052Z,9.61
2022-10-13T05:27:39.493Z,9.95
2022-10-13T05:31:01.086Z,9.94
2022-10-13T05:34:27.327Z,10.02
2022-10-13T05:37:36.176Z,10.07
2022-10-13T05:40:44.982Z,10.10
2022-10-13T05:43:53.192Z,10.26
2022-10-13T05:47:08.119Z,10.36
2022-10-13T05:50:16.909Z,10.43
2022-10-13T05:53:35.063Z,10.52
2022-10-13T05:56:44.749Z,10.66
2022-10-13T06:00:05.322Z,10.80
2022-10-13T06:03:13.063Z,10.84
2022-10-13T06:06:31.574Z,11.00
2022-10-13T06:09:42.236Z,11.40
2022-10-13T06:12:50.885Z,11.86
2022-10-13T06:19:54.208Z,12.44
2022-10-13T06:23:16.081Z,12.61
2022-10-13T06:30:27.816Z,12.80
2022-10-13T06:34:07.090Z,12.74
2022-10-13T06:37:35.539Z,12.72
2022-10-13T06:41:24.901Z,12.64
2022-10-13T06:45:12.175Z,12.53
2022-10-13T07:22:16.758Z,13.45
2022-10-13T08:02:29.157Z,14.62
2022-10-13T08:06:28.359Z,14.88
2022-10-13T08:10:20.851Z,14.93
2022-10-13T08:30:19.008Z,15.52
2022-10-13T09:20:18.509Z,17.34
2022-10-13T09:32:25.614Z,17.77
2022-10-13T10:16:29.316Z,17.05
2022-10-13T10:19:59.625Z,18.39
2022-10-13T10:23:40.258Z,18.23
2022-10-13T10:26:58.867Z,18.19
2022-10-13T10:35:04.143Z,18.04
2022-10-13T10:38:31.211Z,18.16
2022-10-13T10:45:42.898Z,18.21
2022-10-13T10:53:26.330Z,18.29
2022-10-13T10:57:25.508Z,18.22
2022-10-13T11:01:17.809Z,18.24
2022-10-13T11:04:50.483Z,18.17
2022-10-13T11:08:20.154Z,18.33
2022-10-13T11:32:54.353Z,17.53
2022-10-13T11:36:27.560Z,18.13
2022-10-13T11:43:10.782Z,17.71
2022-10-13T11:51:45.789Z,18.13
2022-10-13T12:15:44.575Z,18.32
2022-10-13T20:45:43.623Z,12.40
2022-10-13T20:52:59.495Z,12.33
2022-10-13T21:04:20.789Z,12.25
2022-10-13T22:45:14.563Z,10.86
2022-10-13T22:48:48.960Z,11.34
2022-10-13T23:04:49.594Z,11.09
2022-10-13T23:32:09.980Z,10.81
2022-10-13T23:40:25.516Z,10.29
2022-10-13T23:43:45.236Z,10.20
